createdAt,value
2022-11-01T00:02:07.492Z,15.60
2022-11-01T00:04:35.888Z,15.60
2022-11-01T00:07:04.583Z,15.60
2022-11-01T00:09:32.930Z,15.60
2022-11-01T00:12:01.315Z,15.60
2022-11-01T00:14:31.063Z,15.60
2022-11-01T00:16:59.585Z,15.60
2022-11-01T00:19:27.854Z,15.60
2022-11-01T00:21:56.227Z,15.60
2022-11-01T00:24:25.217Z,15.60
2022-11-01T00:26:53.827Z,15.60
2022-11-01T00:29:22.186Z,15.70
2022-11-01T00:31:51.931Z,15.60
2022-11-01T00:34:20.389Z,15.60
2022-11-01T00:36:48.919Z,15.60
2022-11-01T00:39:17.880Z,15.60
2022-11-01T00:41:46.343Z,15.60
2022-11-01T00:44:14.686Z,15.60
2022-11-01T00:46:42.976Z,15.60
2022-11-01T00:49:13.058Z,15.60
2022-11-01T00:51:41.475Z,15.60
2022-11-01T00:54:09.798Z,15.60
2022-11-01T00:56:38.356Z,15.50
2022-11-01T00:59:06.804Z,15.50
2022-11-01T01:01:35.354Z,15.50
2022-11-01T01:04:04.418Z,15.50
2022-11-01T01:06:34.156Z,15.50
2022-11-01T01:09:03.203Z,15.40
2022-11-01T01:11:31.676Z,15.40
2022-11-01T01:13:59.998Z,15.40
2022-11-01T01:16:28.439Z,15.30
2022-11-01T01:18:56.886Z,15.30
2022-11-01T01:21:25.193Z,15.30
2022-11-01T01:23:54.961Z,15.30
2022-11-01T01:26:23.578Z,15.20
2022-11-01T01:28:55.210Z,15.20
2022-11-01T01:31:23.615Z,15.20
2022-11-01T01:33:51.977Z,15.20
2022-11-01T01:36:25.292Z,15.20
2022-11-01T01:38:55.033Z,15.20
2022-11-01T01:41:41.901Z,15.20
2022-11-01T01:44:51.233Z,15.10
2022-11-01T01:47:23.291Z,15.10
2022-11-01T01:49:55.664Z,15.10
2022-11-01T01:52:24.611Z,15.10
2022-11-01T01:54:55.144Z,15.20
2022-11-01T01:57:23.450Z,15.20
2022-11-01T01:59:52.444Z,15.20
2022-11-01T02:02:22.033Z,15.20
2022-11-01T02:04:57.283Z,15.20
2022-11-01T02:07:26.530Z,15.10
2022-11-01T02:09:58.312Z,15.10
2022-11-01T02:12:32.792Z,15.10
2022-11-01T02:15:01.226Z,15.10
2022-11-01T02:17:35.795Z,15.10
2022-11-01T02:20:28.422Z,15.00
2022-11-01T02:23:12.987Z,15.00
2022-11-01T02:26:00.800Z,15.00
2022-11-01T02:28:49.535Z,15.00
2022-11-01T02:31:36.614Z,14.90
2022-11-01T02:34:14.198Z,14.90
2022-11-01T02:36:48.645Z,14.90
2022-11-01T02:39:23.556Z,14.90
2022-11-01T02:41:57.403Z,14.90
2022-11-01T02:44:29.840Z,14.80
2022-11-01T02:47:03.756Z,14.80
2022-11-01T02:49:37.027Z,14.80
2022-11-01T02:52:07.851Z,14.80
2022-11-01T02:54:43.841Z,14.80
2022-11-01T02:57:28.698Z,14.80
2022-11-01T03:00:04.317Z,14.80
2022-11-01T03:02:40.735Z,14.80
2022-11-01T03:05:16.026Z,14.90
2022-11-01T03:07:48.956Z,14.80
2022-11-01T03:10:18.069Z,14.80
2022-11-01T03:12:53.232Z,14.80
2022-11-01T03:15:27.435Z,14.80
2022-11-01T03:18:02.079Z,14.70
2022-11-01T03:20:48.738Z,14.70
2022-11-01T03:23:20.264Z,14.70
2022-11-01T03:25:53.715Z,14.70
2022-11-01T03:28:25.062Z,14.70
2022-11-01T03:30:57.646Z,14.70
2022-11-01T03:33:28.775Z,14.70
2022-11-01T03:36:04.214Z,14.70
2022-11-01T03:38:37.651Z,14.70
2022-11-01T03:41:10.503Z,14.60
2022-11-01T03:43:39.922Z,14.60
2022-11-01T03:46:09.256Z,14.60
2022-11-01T03:48:40.753Z,14.60
2022-11-01T03:51:10.501Z,14.60
2022-11-01T03:53:39.315Z,14.60
2022-11-01T03:56:08.302Z,14.60
2022-11-01T03:58:46.286Z,14.60
2022-11-01T04:01:17.015Z,14.60
2022-11-01T04:03:45.523Z,14.60
2022-11-01T04:06:15.259Z,14.50
2022-11-01T04:08:43.517Z,14.50
2022-11-01T04:11:12.006Z,14.50
2022-11-01T04:13:40.504Z,14.50
2022-11-01T04:16:27.851Z,14.50
2022-11-01T04:19:13.401Z,14.50
2022-11-01T04:21:43.327Z,14.50
2022-11-01T04:24:11.792Z,14.50
2022-11-01T04:26:40.140Z,14.50
2022-11-01T04:29:08.441Z,14.50
2022-11-01T04:31:38.151Z,14.40
2022-11-01T04:34:06.991Z,14.40
2022-11-01T04:36:35.341Z,14.40
2022-11-01T04:39:05.179Z,14.40
2022-11-01T04:41:33.511Z,14.40
2022-11-01T04:44:01.817Z,14.40
2022-11-01T04:46:32.346Z,14.40
2022-11-01T04:49:00.713Z,14.40
2022-11-01T04:51:29.182Z,14.40
2022-11-01T04:53:57.547Z,14.40
2022-11-01T04:56:27.286Z,14.40
2022-11-01T04:58:55.683Z,14.40
2022-11-01T05:01:24.106Z,14.40
2022-11-01T05:03:52.651Z,14.40
2022-11-01T05:06:20.926Z,14.40
2022-11-01T05:08:49.264Z,14.50
2022-11-01T05:11:17.801Z,14.50
2022-11-01T05:13:47.555Z,14.50
2022-11-01T05:16:20.485Z,14.50
2022-11-01T05:18:49.516Z,14.50
2022-11-01T05:21:17.865Z,14.50
2022-11-01T05:23:48.416Z,14.60
2022-11-01T05:26:16.873Z,14.60
2022-11-01T05:28:46.634Z,14.60
2022-11-01T05:31:14.935Z,14.60
2022-11-01T05:33:43.236Z,14.70
2022-11-01T05:36:11.744Z,14.70
2022-11-01T05:38:40.076Z,14.70
2022-11-01T05:41:08.549Z,14.70
2022-11-01T05:43:36.898Z,14.70
2022-11-01T05:46:07.924Z,14.70
2022-11-01T05:48:36.565Z,14.60
2022-11-01T05:51:04.972Z,14.60
2022-11-01T05:53:33.320Z,14.50
2022-11-01T05:56:01.737Z,14.50
2022-11-01T05:58:31.053Z,14.50
2022-11-01T06:01:00.185Z,14.50
2022-11-01T06:03:30.032Z,14.50
2022-11-01T06:05:58.471Z,14.50
2022-11-01T06:08:27.366Z,14.50
2022-11-01T06:11:02.687Z,14.50
2022-11-01T06:13:31.481Z,14.50
2022-11-01T06:16:00.907Z,14.50
2022-11-01T06:18:30.869Z,14.50
2022-11-01T06:20:59.468Z,14.50
2022-11-01T06:23:27.859Z,14.40
2022-11-01T06:26:03.817Z,14.40
2022-11-01T06:28:32.589Z,14.50
2022-11-01T06:31:02.773Z,14.50
2022-11-01T06:33:33.020Z,14.50
2022-11-01T06:36:02.440Z,14.50
2022-11-01T06:38:30.867Z,14.50
2022-11-01T06:40:59.392Z,14.50
2022-11-01T06:43:27.803Z,14.50
2022-11-01T06:45:56.146Z,14.50
2022-11-01T06:48:24.576Z,14.60
2022-11-01T06:50:55.902Z,14.60
2022-11-01T06:53:24.799Z,14.70
2022-11-01T06:55:53.647Z,14.70
2022-11-01T06:58:22.319Z,14.70
2022-11-01T07:00:50.751Z,14.60
2022-11-01T07:03:19.118Z,14.70
2022-11-01T07:05:49.546Z,14.70
2022-11-01T07:08:19.310Z,14.80
2022-11-01T07:10:47.796Z,14.90
2022-11-01T07:13:16.276Z,14.80
2022-11-01T07:15:44.557Z,14.90
2022-11-01T07:18:13.364Z,15.00
2022-11-01T07:23:20.330Z,15.10
2022-11-01T07:25:52.950Z,15.10
2022-11-01T07:28:21.506Z,15.20
2022-11-01T07:30:50.213Z,15.20
2022-11-01T07:33:19.042Z,15.30
2022-11-01T07:35:47.424Z,15.40
2022-11-01T07:38:16.549Z,15.40
2022-11-01T07:40:49.597Z,15.50
2022-11-01T07:43:18.782Z,15.50
2022-11-01T07:45:47.345Z,15.60
2022-11-01T07:48:17.010Z,15.60
2022-11-01T07:50:46.250Z,15.60
2022-11-01T07:53:16.401Z,15.60
2022-11-01T07:55:46.504Z,15.70
2022-11-01T07:58:16.004Z,15.70
2022-11-01T08:00:45.258Z,15.70
2022-11-01T08:03:15.283Z,15.70
2022-11-01T08:05:43.980Z,15.70
2022-11-01T08:08:12.971Z,15.70
2022-11-01T08:10:42.417Z,15.70
2022-11-01T08:13:19.277Z,15.80
2022-11-01T08:15:48.112Z,15.80
2022-11-01T08:18:17.282Z,15.80
2022-11-01T08:20:45.702Z,15.80
2022-11-01T08:23:14.440Z,15.80
2022-11-01T08:25:43.819Z,15.80
2022-11-01T08:28:15.549Z,15.90
2022-11-01T08:30:45.445Z,15.90
2022-11-01T08:33:14.656Z,16.00
2022-11-01T08:35:49.808Z,16.00
2022-11-01T08:38:18.707Z,16.10
2022-11-01T08:40:47.225Z,16.10
2022-11-01T08:43:17.316Z,16.20
2022-11-01T08:45:45.718Z,16.30
2022-11-01T08:48:15.032Z,16.40
2022-11-01T08:50:43.657Z,16.40
2022-11-01T08:53:13.849Z,16.50
2022-11-01T08:55:43.144Z,16.50
2022-11-01T08:58:12.045Z,16.50
2022-11-01T09:00:41.741Z,16.50
2022-11-01T09:03:10.014Z,16.60
2022-11-01T09:05:38.395Z,16.60
2022-11-01T09:08:07.209Z,16.70
2022-11-01T09:10:35.729Z,16.80
2022-11-01T09:13:04.659Z,16.90
2022-11-01T09:15:34.317Z,17.00
2022-11-01T09:18:08.856Z,17.10
2022-11-01T09:20:37.478Z,17.20
2022-11-01T09:23:07.107Z,17.20
2022-11-01T09:25:36.983Z,17.30
2022-11-01T09:28:05.658Z,17.30
2022-11-01T09:30:34.271Z,17.40
2022-11-01T09:33:14.314Z,17.40
2022-11-01T09:35:45.363Z,17.50
2022-11-01T09:38:17.867Z,17.50
2022-11-01T09:40:52.055Z,17.50
2022-11-01T09:43:24.257Z,17.60
2022-11-01T09:45:57.755Z,17.60
2022-11-01T09:48:30.033Z,17.70
2022-11-01T09:50:59.000Z,17.70
2022-11-01T09:53:29.511Z,17.70
2022-11-01T09:56:05.495Z,17.70
2022-11-01T09:58:44.778Z,17.80
2022-11-01T10:01:24.620Z,17.80
2022-11-01T10:04:07.458Z,17.90
2022-11-01T10:06:41.164Z,17.90
2022-11-01T10:09:18.277Z,18.00
2022-11-01T10:11:59.042Z,18.00
2022-11-01T10:14:45.547Z,18.20
2022-11-01T10:17:15.718Z,18.20
2022-11-01T10:19:50.394Z,18.30
2022-11-01T10:22:21.057Z,18.30
2022-11-01T10:24:53.991Z,18.30
2022-11-01T10:27:33.058Z,18.30
2022-11-01T10:30:08.045Z,18.30
2022-11-01T10:32:41.698Z,18.30
2022-11-01T10:35:17.532Z,18.30
2022-11-01T10:38:04.043Z,18.20
2022-11-01T10:40:43.213Z,18.20
2022-11-01T10:43:16.243Z,18.20
2022-11-01T10:45:47.987Z,18.30
2022-11-01T10:48:25.923Z,18.40
2022-11-01T10:51:00.269Z,18.40
2022-11-01T10:53:30.711Z,18.40
2022-11-01T10:56:07.913Z,18.40
2022-11-01T10:58:42.314Z,18.40
2022-11-01T11:01:16.666Z,18.50
2022-11-01T11:03:47.453Z,18.50
2022-11-01T11:06:19.159Z,18.50
2022-11-01T11:08:52.810Z,18.60
2022-11-01T11:11:32.529Z,18.60
2022-11-01T11:14:02.976Z,18.70
2022-11-01T11:16:35.285Z,18.70
2022-11-01T11:19:16.495Z,18.70
2022-11-01T11:21:48.820Z,18.80
2022-11-01T11:24:23.569Z,18.90
2022-11-01T11:26:55.896Z,19.00
2022-11-01T11:29:40.929Z,19.10
2022-11-01T11:32:17.563Z,19.20
2022-11-01T11:34:53.227Z,19.40
2022-11-01T11:37:24.876Z,19.50
2022-11-01T11:40:19.215Z,19.60
2022-11-01T11:42:49.373Z,19.80
2022-11-01T11:45:27.870Z,19.90
2022-11-01T11:47:57.620Z,19.90
2022-11-01T11:50:34.897Z,19.90
2022-11-01T11:53:18.442Z,19.90
2022-11-01T11:55:49.311Z,19.90
2022-11-01T11:58:28.166Z,19.80
2022-11-01T12:01:02.048Z,19.70
2022-11-01T12:03:31.429Z,19.60
2022-11-01T12:06:08.793Z,19.60
2022-11-01T12:08:49.083Z,19.50
2022-11-01T12:11:18.759Z,19.50
2022-11-01T12:14:01.576Z,19.40
2022-11-01T12:16:30.688Z,19.40
2022-11-01T12:19:01.657Z,19.40
2022-11-01T12:21:37.146Z,19.30
2022-11-01T12:24:11.807Z,19.30
2022-11-01T12:26:41.013Z,19.30
2022-11-01T12:29:24.404Z,19.30
2022-11-01T12:31:54.805Z,19.30
2022-11-01T12:34:27.682Z,19.30
2022-11-01T12:37:02.057Z,19.30
2022-11-01T12:39:47.287Z,19.30
2022-11-01T12:42:26.816Z,19.30
2022-11-01T12:44:59.444Z,19.30
2022-11-01T12:47:33.522Z,19.40
2022-11-01T12:50:06.672Z,19.40
2022-11-01T12:52:39.901Z,19.40
2022-11-01T12:55:20.775Z,19.40
2022-11-01T12:57:49.744Z,19.50
2022-11-01T13:00:20.113Z,19.40
2022-11-01T13:03:18.256Z,19.40
2022-11-01T13:05:54.932Z,19.40
2022-11-01T13:08:33.240Z,19.40
2022-11-01T13:11:14.131Z,19.40
2022-11-01T13:13:47.054Z,19.50
2022-11-01T13:16:22.598Z,19.50
2022-11-01T13:18:58.247Z,19.50
2022-11-01T13:21:37.308Z,19.50
2022-11-01T13:24:13.655Z,19.50
2022-11-01T13:26:48.231Z,19.50
2022-11-01T13:29:20.077Z,19.60
2022-11-01T13:31:59.106Z,19.60
2022-11-01T13:34:37.838Z,19.60
2022-11-01T13:37:15.449Z,19.60
2022-11-01T13:39:55.476Z,19.60
2022-11-01T13:42:29.383Z,19.60
2022-11-01T13:45:14.912Z,19.50
2022-11-01T13:47:56.705Z,19.50
2022-11-01T13:50:59.088Z,19.40
2022-11-01T13:53:33.438Z,19.30
2022-11-01T13:56:06.103Z,19.20
2022-11-01T13:58:36.133Z,19.20
2022-11-01T14:01:32.231Z,19.20
2022-11-01T14:04:34.003Z,19.10
2022-11-01T14:07:15.519Z,19.10
2022-11-01T14:09:48.870Z,19.10
2022-11-01T14:12:37.361Z,19.10
2022-11-01T14:15:19.239Z,19.10
2022-11-01T14:18:08.630Z,19.10
2022-11-01T14:20:48.342Z,19.00
2022-11-01T14:23:51.242Z,19.00
2022-11-01T14:27:00.929Z,19.00
2022-11-01T14:29:30.257Z,19.00
2022-11-01T14:32:01.018Z,19.00
2022-11-01T14:34:33.990Z,19.00
2022-11-01T14:37:14.843Z,19.00
2022-11-01T14:39:49.876Z,19.00
2022-11-01T14:42:26.537Z,19.10
2022-11-01T14:45:00.147Z,19.10
2022-11-01T14:47:36.880Z,19.10
2022-11-01T14:50:16.895Z,19.10
2022-11-01T14:52:50.752Z,19.00
2022-11-01T14:55:23.942Z,19.00
2022-11-01T14:58:07.580Z,19.00
2022-11-01T15:00:36.381Z,18.90
2022-11-01T15:03:08.653Z,18.80
2022-11-01T15:05:45.139Z,18.70
2022-11-01T15:08:32.175Z,18.70
2022-11-01T15:11:04.469Z,18.60
2022-11-01T15:13:38.538Z,18.50
2022-11-01T15:16:15.328Z,18.40
2022-11-01T15:18:54.440Z,18.40
2022-11-01T15:21:28.897Z,18.30
2022-11-01T15:24:03.691Z,18.20
2022-11-01T15:26:34.628Z,18.20
2022-11-01T15:29:05.502Z,18.10
2022-11-01T15:31:36.038Z,18.10
2022-11-01T15:34:22.234Z,18.00
2022-11-01T15:36:51.399Z,17.90
2022-11-01T15:39:25.242Z,17.90
2022-11-01T15:41:56.000Z,17.80
2022-11-01T15:44:26.346Z,17.80
2022-11-01T15:46:56.817Z,17.70
2022-11-01T15:49:29.718Z,17.70
2022-11-01T15:52:01.746Z,17.70
2022-11-01T15:54:42.018Z,17.60
2022-11-01T15:57:17.566Z,17.60
2022-11-01T15:59:52.494Z,17.50
2022-11-01T16:02:28.186Z,17.50
2022-11-01T16:05:01.582Z,17.40
2022-11-01T16:07:32.909Z,17.40
2022-11-01T16:10:05.157Z,17.40
2022-11-01T16:12:38.741Z,17.30
2022-11-01T16:15:09.993Z,17.30
2022-11-01T16:17:41.007Z,17.20
2022-11-01T16:20:30.671Z,17.20
2022-11-01T16:23:01.490Z,17.20
2022-11-01T16:25:31.119Z,17.20
2022-11-01T16:28:07.349Z,17.10
2022-11-01T16:30:40.802Z,17.10
2022-11-01T16:33:17.025Z,17.10
2022-11-01T16:35:48.196Z,17.00
2022-11-01T16:38:28.961Z,17.00
2022-11-01T16:40:59.594Z,17.00
2022-11-01T16:43:30.124Z,17.00
2022-11-01T16:45:59.635Z,17.00
2022-11-01T16:48:29.914Z,16.90
2022-11-01T16:51:01.971Z,16.90
2022-11-01T16:53:32.068Z,16.90
2022-11-01T16:56:35.109Z,16.90
2022-11-01T16:59:00.521Z,16.90
2022-11-01T17:01:35.352Z,16.80
2022-11-01T17:04:05.493Z,16.80
2022-11-01T17:06:39.036Z,16.80
2022-11-01T17:09:12.984Z,16.70
2022-11-01T17:11:45.034Z,16.80
2022-11-01T17:14:16.813Z,16.80
2022-11-01T17:16:47.904Z,16.80
2022-11-01T17:19:23.049Z,16.70
2022-11-01T17:21:57.438Z,16.70
2022-11-01T17:24:27.422Z,16.70
2022-11-01T17:26:59.081Z,16.70
2022-11-01T17:29:27.815Z,16.70
2022-11-01T17:31:56.325Z,16.70
2022-11-01T17:34:26.631Z,16.60
2022-11-01T17:37:02.507Z,16.70
2022-11-01T17:39:33.117Z,16.60
2022-11-01T17:42:01.799Z,16.70
2022-11-01T17:44:30.352Z,16.60
2022-11-01T17:46:58.777Z,16.60
2022-11-01T17:49:27.176Z,16.60
2022-11-01T17:51:56.417Z,16.60
2022-11-01T17:56:59.460Z,16.50
2022-11-01T17:59:27.821Z,16.50
2022-11-01T18:01:56.319Z,16.40
2022-11-01T18:04:24.835Z,16.40
2022-11-01T18:06:53.103Z,16.40
2022-11-01T18:09:24.878Z,16.40
2022-11-01T18:12:01.922Z,16.30
2022-11-01T18:14:49.674Z,16.30
2022-11-01T18:17:32.057Z,16.30
2022-11-01T18:20:05.444Z,16.30
2022-11-01T18:22:40.075Z,16.20
2022-11-01T18:25:21.195Z,16.20
2022-11-01T18:27:51.407Z,16.10
2022-11-01T18:30:21.579Z,16.10
2022-11-01T18:32:56.442Z,16.10
2022-11-01T18:35:32.434Z,16.10
2022-11-01T18:38:20.778Z,16.10
2022-11-01T18:40:58.043Z,16.00
2022-11-01T18:43:29.843Z,16.00
2022-11-01T18:48:48.007Z,15.90
2022-11-01T18:51:23.508Z,15.90
2022-11-01T18:53:56.257Z,15.90
2022-11-01T18:56:26.582Z,15.80
2022-11-01T18:58:59.000Z,15.80
2022-11-01T19:01:32.603Z,15.80
2022-11-01T19:04:10.615Z,15.70
2022-11-01T19:06:39.161Z,15.70
2022-11-01T19:09:20.678Z,15.70
2022-11-01T19:11:52.232Z,15.60
2022-11-01T19:14:23.669Z,15.60
2022-11-01T19:16:53.208Z,15.60
2022-11-01T19:19:22.275Z,15.50
2022-11-01T19:21:50.647Z,15.50
2022-11-01T19:24:31.534Z,15.40
2022-11-01T19:27:00.712Z,15.40
2022-11-01T19:29:34.981Z,15.40
2022-11-01T19:32:05.996Z,15.30
2022-11-01T19:34:38.424Z,15.30
2022-11-01T19:37:19.600Z,15.30
2022-11-01T19:39:48.432Z,15.20
2022-11-01T19:42:26.434Z,15.20
2022-11-01T19:44:59.321Z,15.20
2022-11-01T19:47:36.971Z,15.10
2022-11-01T19:50:17.990Z,15.10
2022-11-01T19:52:47.704Z,15.10
2022-11-01T19:55:41.146Z,15.00
2022-11-01T19:58:26.939Z,15.00
2022-11-01T20:01:21.270Z,15.00
2022-11-01T20:03:55.587Z,14.90
2022-11-01T20:06:30.292Z,14.90
2022-11-01T20:09:02.896Z,14.90
2022-11-01T20:11:31.730Z,14.80
2022-11-01T20:14:00.207Z,14.80
2022-11-01T20:16:29.979Z,14.80
2022-11-01T20:18:58.284Z,14.70
2022-11-01T20:21:27.083Z,14.70
2022-11-01T20:23:55.616Z,14.70
2022-11-01T20:26:23.961Z,14.60
2022-11-01T20:28:52.332Z,14.60
2022-11-01T20:31:20.785Z,14.60
2022-11-01T20:33:51.055Z,14.50
2022-11-01T20:36:19.547Z,14.50
2022-11-01T20:38:48.012Z,14.50
2022-11-01T20:41:16.583Z,14.50
2022-11-01T20:43:44.900Z,14.40
2022-11-01T20:46:13.655Z,14.40
2022-11-01T20:48:42.352Z,14.40
2022-11-01T20:51:12.072Z,14.40
2022-11-01T20:53:40.523Z,14.40
2022-11-01T20:56:09.445Z,14.40
2022-11-01T20:58:40.707Z,14.30
2022-11-01T21:01:15.192Z,14.30
2022-11-01T21:03:44.548Z,14.30
2022-11-01T21:06:16.885Z,14.30
2022-11-01T21:08:48.355Z,14.20
2022-11-01T21:11:23.426Z,14.20
2022-11-01T21:13:52.505Z,14.20
2022-11-01T21:16:25.541Z,14.20
2022-11-01T21:18:56.117Z,14.20
2022-11-01T21:21:32.410Z,14.10
2022-11-01T21:24:03.501Z,14.10
2022-11-01T21:26:33.849Z,14.10
2022-11-01T21:29:15.851Z,14.10
2022-11-01T21:31:44.574Z,14.10
2022-11-01T21:34:25.670Z,14.10
2022-11-01T21:36:55.705Z,14.10
2022-11-01T21:39:26.623Z,14.10
2022-11-01T21:41:57.883Z,14.00
2022-11-01T21:44:30.088Z,14.00
2022-11-01T21:47:02.411Z,14.00
2022-11-01T21:49:33.080Z,14.00
2022-11-01T21:52:04.038Z,14.00
2022-11-01T21:54:34.529Z,13.90
2022-11-01T21:57:03.944Z,13.90
2022-11-01T21:59:32.815Z,13.90
2022-11-01T22:02:02.181Z,13.90
2022-11-01T22:04:31.821Z,13.80
2022-11-01T22:07:00.794Z,13.80
2022-11-01T22:09:31.327Z,13.80
2022-11-01T22:12:01.263Z,13.80
2022-11-01T22:14:29.871Z,13.80
2022-11-01T22:16:59.131Z,13.70
2022-11-01T22:19:27.521Z,13.70
2022-11-01T22:21:55.894Z,13.70
2022-11-01T22:24:25.394Z,13.70
2022-11-01T22:26:55.479Z,13.70
2022-11-01T22:29:23.792Z,13.70
2022-11-01T22:31:52.154Z,13.70
2022-11-01T22:34:21.396Z,13.70
2022-11-01T22:36:50.317Z,13.70
2022-11-01T22:39:21.667Z,13.70
2022-11-01T22:41:50.194Z,13.70
2022-11-01T22:44:26.453Z,13.70
2022-11-01T22:46:58.955Z,13.70
2022-11-01T22:49:30.138Z,13.70
2022-11-01T22:52:03.500Z,13.60
2022-11-01T22:54:38.230Z,13.60
2022-11-01T22:57:15.722Z,13.60
2022-11-01T22:59:47.902Z,13.60
2022-11-01T23:02:28.108Z,13.60
2022-11-01T23:05:17.158Z,13.60
2022-11-01T23:07:47.955Z,13.60
2022-11-01T23:10:25.688Z,13.50
2022-11-01T23:13:16.811Z,13.50
2022-11-01T23:15:47.089Z,13.50
2022-11-01T23:18:21.120Z,13.50
2022-11-01T23:20:55.187Z,13.50
2022-11-01T23:23:23.819Z,13.50
2022-11-01T23:25:52.896Z,13.50
2022-11-01T23:28:21.328Z,13.50
2022-11-01T23:30:51.818Z,13.50
2022-11-01T23:33:23.226Z,13.40
2022-11-01T23:35:53.940Z,13.40
2022-11-01T23:38:24.629Z,13.50
2022-11-01T23:40:55.209Z,13.40
2022-11-01T23:43:26.205Z,13.40
2022-11-01T23:45:56.126Z,13.40
2022-11-01T23:48:24.935Z,13.40
2022-11-01T23:50:54.121Z,13.40
2022-11-01T23:53:28.477Z,13.40
2022-11-01T23:55:56.867Z,13.40
